Time;durP1;ratioP1;P1;durP2;ratioP2;P2;SDS_P1;SDS_P2;PMS_P1;PMS_P2;Temp;Humidity;BMP_temperature;BMP_pressure;BME280_temperature;BME280_humidity;BME280_pressure;Samples;Min_cycle;Max_cycle;Signal;HPM_P1;HPM_P2
2022/10/04 00:00:36;;;;;;;7.40;6.70;;;;;20.50;101268.00;;;;2051131;28;20822;-62
2022/10/04 00:01:43;;;;;;;8.63;7.80;;;;;20.50;101265.00;;;;2052152;28;20216;-62
2022/10/04 00:02:44;;;;;;;8.65;7.00;;;;;20.50;101266.00;;;;2052448;28;20220;-63
2022/10/04 00:04:02;;;;;;;9.38;7.47;;;;;20.50;101245.00;;;;2051460;28;20208;-62
2022/10/04 00:05:07;;;;;;;9.13;7.57;;;;;20.50;101235.00;;;;2044309;29;20631;-62
2022/10/04 00:06:12;;;;;;;8.68;6.75;;;;;20.50;101268.00;;;;2045602;28;20223;-63
2022/10/04 00:07:13;;;;;;;7.95;6.80;;;;;20.50;101262.00;;;;2044805;28;20225;-62
2022/10/04 00:08:40;;;;;;;7.47;6.67;;;;;20.50;101263.00;;;;2051936;28;20246;-62
2022/10/04 00:09:44;;;;;;;7.68;6.78;;;;;20.50;101262.00;;;;2051847;28;20318;-62
2022/10/04 00:10:44;;;;;;;11.75;6.45;;;;;20.50;101260.00;;;;2051662;28;20647;-62
2022/10/04 00:11:45;;;;;;;7.47;6.00;;;;;20.50;101253.00;;;;2039308;29;20217;-62
2022/10/04 00:12:48;;;;;;;7.40;5.95;;;;;20.50;101256.00;;;;2038208;28;20229;-62
2022/10/04 00:13:51;;;;;;;7.13;5.88;;;;;20.50;101255.00;;;;2047539;29;20230;-62
2022/10/04 00:14:53;;;;;;;7.75;6.55;;;;;20.50;101262.00;;;;2041755;29;21142;-61
2022/10/04 00:15:54;;;;;;;8.30;7.07;;;;;20.50;101249.00;;;;2044289;28;20307;-62
2022/10/04 00:16:54;;;;;;;6.97;5.80;;;;;20.50;101266.00;;;;2051494;28;20768;-62
2022/10/04 00:18:06;;;;;;;7.80;6.20;;;;;20.50;101257.00;;;;2051197;28;20271;-62
2022/10/04 00:19:18;;;;;;;6.78;6.10;;;;;20.50;101255.00;;;;2049866;28;20228;-62
2022/10/04 00:20:49;;;;;;;6.60;5.95;;;;;20.50;101255.00;;;;2051028;28;20227;-62
2022/10/04 00:21:55;;;;;;;6.35;5.75;;;;;20.50;101250.00;;;;2050869;28;20291;-62
2022/10/04 00:23:23;;;;;;;6.63;5.85;;;;;20.50;101250.00;;;;2052768;28;20220;-61
2022/10/04 00:24:28;;;;;;;6.00;5.40;;;;;20.40;101255.00;;;;2042063;28;20215;-61
2022/10/04 00:25:33;;;;;;;6.60;5.60;;;;;20.50;101256.00;;;;2043586;29;20213;-62
2022/10/04 00:26:42;;;;;;;6.00;5.38;;;;;20.40;101250.00;;;;2040115;28;20227;-62
2022/10/04 00:28:33;;;;;;;8.80;6.18;;;;;20.40;101250.00;;;;2051617;28;20219;-62
2022/10/04 00:29:38;;;;;;;6.07;5.05;;;;;20.40;101239.00;;;;2037919;29;20228;-62
2022/10/04 00:30:38;;;;;;;7.07;5.38;;;;;20.40;101211.00;;;;2044382;28;20275;-61
2022/10/04 00:32:09;;;;;;;6.87;5.10;;;;;20.50;101233.00;;;;2043250;29;20223;-62
2022/10/04 00:33:09;;;;;;;6.07;5.13;;;;;20.40;101236.00;;;;2051400;28;20223;-62
2022/10/04 00:34:10;;;;;;;6.83;5.47;;;;;20.40;101232.00;;;;2051341;28;20243;-62
2022/10/04 00:35:26;;;;;;;6.17;5.33;;;;;20.40;101242.00;;;;2051883;28;20672;-62
2022/10/04 00:36:38;;;;;;;5.95;5.43;;;;;20.40;101229.00;;;;2053092;28;20207;-62
2022/10/04 00:38:12;;;;;;;4.78;4.15;;;;;20.40;101233.00;;;;2042920;29;20217;-63
2022/10/04 00:39:14;;;;;;;6.78;5.38;;;;;20.40;101225.00;;;;2043369;28;20231;-62
2022/10/04 00:40:15;;;;;;;6.28;5.25;;;;;20.40;101222.00;;;;2049564;28;20741;-62
2022/10/04 00:41:15;;;;;;;5.50;5.00;;;;;20.40;101225.00;;;;2035710;29;20816;-62
2022/10/04 00:42:32;;;;;;;5.03;4.53;;;;;20.40;101222.00;;;;2038836;29;20244;-62
2022/10/04 00:43:40;;;;;;;6.43;5.15;;;;;20.40;101219.00;;;;2037590;29;20243;-62
2022/10/04 00:44:46;;;;;;;6.03;5.00;;;;;20.40;101202.00;;;;2031223;29;20217;-62
2022/10/04 00:45:50;;;;;;;5.60;4.90;;;;;20.40;101189.00;;;;2035675;29;20213;-62
2022/10/04 00:46:50;;;;;;;6.85;5.45;;;;;20.40;101225.00;;;;2037376;29;20217;-62
2022/10/04 00:47:55;;;;;;;5.80;4.63;;;;;20.40;101222.00;;;;2044329;29;20217;-62
2022/10/04 00:48:57;;;;;;;5.07;4.43;;;;;20.40;101192.00;;;;2043712;28;20700;-62
2022/10/04 00:50:20;;;;;;;4.25;3.85;;;;;20.40;101222.00;;;;2042868;28;20275;-62
2022/10/04 00:51:53;;;;;;;4.78;4.32;;;;;20.40;101229.00;;;;2049777;28;20709;-62
2022/10/04 00:52:56;;;;;;;5.50;4.97;;;;;20.40;101222.00;;;;2049773;28;20592;-62
2022/10/04 00:54:08;;;;;;;5.22;4.32;;;;;20.40;101227.00;;;;2051614;28;20278;-62
2022/10/04 00:55:09;;;;;;;4.97;4.47;;;;;20.40;101229.00;;;;2052071;28;20211;-62
2022/10/04 00:56:12;;;;;;;5.60;4.67;;;;;20.40;101260.00;;;;2041659;29;20599;-66
2022/10/04 00:57:18;;;;;;;5.50;4.63;;;;;20.40;101227.00;;;;2035161;29;20697;-61
2022/10/04 00:58:34;;;;;;;6.45;4.78;;;;;20.40;101229.00;;;;2043398;28;20213;-62
2022/10/04 00:59:42;;;;;;;4.72;4.32;;;;;20.40;101229.00;;;;2049722;28;20932;-62
2022/10/04 01:00:42;;;;;;;4.60;4.20;;;;;20.40;101229.00;;;;2045725;29;20307;-62
2022/10/04 01:01:43;;;;;;;5.40;4.90;;;;;20.40;101236.00;;;;2050316;28;20238;-62
2022/10/04 01:02:55;;;;;;;4.53;4.13;;;;;20.40;101236.00;;;;2041997;29;20231;-62
2022/10/04 01:03:55;;;;;;;5.95;4.65;;;;;20.40;101231.00;;;;2044453;29;20263;-62
2022/10/04 01:05:06;;;;;;;5.30;4.00;;;;;20.40;101234.00;;;;2049498;28;20263;-62
2022/10/04 01:06:07;;;;;;;4.50;4.10;;;;;20.40;101250.00;;;;2053845;28;20219;-62
2022/10/04 01:07:08;;;;;;;5.28;4.18;;;;;20.40;101237.00;;;;2035580;29;20267;-62
2022/10/04 01:08:12;;;;;;;4.50;4.10;;;;;20.40;101236.00;;;;2040807;29;20217;-62
2022/10/04 01:09:12;;;;;;;4.70;4.30;;;;;20.40;101233.00;;;;2052192;28;20459;-62
2022/10/04 01:10:17;;;;;;;4.47;4.07;;;;;20.40;101233.00;;;;2044527;29;20707;-63
2022/10/04 01:11:19;;;;;;;4.60;4.13;;;;;20.40;101207.00;;;;2044060;29;20300;-62
2022/10/04 01:12:48;;;;;;;4.20;3.80;;;;;20.30;101218.00;;;;2051189;28;20235;-62
2022/10/04 01:13:52;;;;;;;4.53;4.10;;;;;20.30;101221.00;;;;2043788;28;20207;-62
2022/10/04 01:15:15;;;;;;;4.30;3.90;;;;;19.90;101214.00;;;;2043092;29;20235;-62
2022/10/04 01:16:19;;;;;;;3.90;3.50;;;;;20.30;101217.00;;;;2042442;28;20220;-62
2022/10/04 01:17:19;;;;;;;4.00;3.60;;;;;20.40;101213.00;;;;2053351;28;20657;-62
2022/10/04 01:18:20;;;;;;;3.70;3.37;;;;;20.40;101218.00;;;;2050589;28;20261;-62
2022/10/04 01:19:27;;;;;;;4.50;4.10;;;;;20.30;101210.00;;;;2050502;28;20307;-62
2022/10/04 01:20:36;;;;;;;4.35;3.85;;;;;20.30;101216.00;;;;2050455;28;20219;-62
2022/10/04 01:21:37;;;;;;;4.00;3.60;;;;;20.30;101200.00;;;;2050663;28;20223;-62
2022/10/04 01:22:41;;;;;;;5.00;4.10;;;;;20.30;101186.00;;;;2050544;28;20704;-62
2022/10/04 01:23:43;;;;;;;3.72;3.30;;;;;20.30;101203.00;;;;2043927;28;20704;-62
2022/10/04 01:24:44;;;;;;;3.95;3.65;;;;;20.30;101206.00;;;;2051079;28;20212;-63
2022/10/04 01:25:47;;;;;;;4.38;3.97;;;;;20.30;101213.00;;;;2051999;28;20227;-60
2022/10/04 01:26:47;;;;;;;4.63;3.60;;;;;20.30;101214.00;;;;2051203;28;20216;-62
2022/10/04 01:27:48;;;;;;;3.77;3.37;;;;;20.30;101209.00;;;;2050666;28;20212;-62
2022/10/04 01:28:48;;;;;;;6.37;3.83;;;;;20.30;101211.00;;;;2050702;28;20265;-62
2022/10/04 01:29:48;;;;;;;3.80;3.40;;;;;20.30;101208.00;;;;2050396;28;20323;-62
2022/10/04 01:30:49;;;;;;;4.10;3.63;;;;;20.30;101214.00;;;;2051458;28;20212;-63
2022/10/04 01:31:53;;;;;;;5.10;4.20;;;;;20.30;101211.00;;;;2050719;28;20240;-63
2022/10/04 01:32:53;;;;;;;3.70;3.30;;;;;20.30;101204.00;;;;2050806;28;20222;-62
2022/10/04 01:33:54;;;;;;;4.20;3.57;;;;;20.30;101201.00;;;;2050841;28;20239;-62
2022/10/04 01:34:54;;;;;;;4.23;3.83;;;;;20.30;101204.00;;;;2050488;28;20222;-62
2022/10/04 01:35:56;;;;;;;4.57;3.60;;;;;20.30;101190.00;;;;2050462;28;20789;-62
2022/10/04 01:36:59;;;;;;;4.53;3.80;;;;;20.30;101200.00;;;;2050492;28;20216;-62
2022/10/04 01:38:02;;;;;;;4.80;3.80;;;;;20.30;101185.00;;;;2051322;28;20212;-62
2022/10/04 01:39:02;;;;;;;4.50;3.60;;;;;20.20;101188.00;;;;2051232;28;20327;-62
2022/10/04 01:40:03;;;;;;;5.43;3.40;;;;;20.30;101188.00;;;;2051251;28;20223;-62
2022/10/04 01:41:03;;;;;;;3.53;3.23;;;;;20.30;101167.00;;;;2051098;28;20310;-62
2022/10/04 01:42:07;;;;;;;4.17;3.77;;;;;20.30;101185.00;;;;2050269;28;20219;-62
2022/10/04 01:43:08;;;;;;;5.72;3.90;;;;;20.30;101119.00;;;;2044268;29;20220;-62
2022/10/04 01:44:14;;;;;;;4.13;3.72;;;;;20.30;101188.00;;;;2038060;29;20221;-62
2022/10/04 01:45:40;;;;;;;3.70;3.40;;;;;20.30;101173.00;;;;2051602;28;20299;-62
2022/10/04 01:46:40;;;;;;;4.00;3.10;;;;;20.30;101168.00;;;;2051115;28;20303;-62
2022/10/04 01:47:44;;;;;;;3.80;3.47;;;;;20.30;101172.00;;;;2051316;28;20860;-62
2022/10/04 01:48:44;;;;;;;4.57;3.47;;;;;20.30;101170.00;;;;2050836;28;20224;-62
2022/10/04 01:49:44;;;;;;;5.20;3.57;;;;;20.30;101171.00;;;;2050100;28;20227;-62
2022/10/04 01:50:54;;;;;;;5.07;3.37;;;;;20.30;101173.00;;;;2042691;29;20290;-62
2022/10/04 01:51:56;;;;;;;4.05;3.53;;;;;20.30;101181.00;;;;2044657;28;20217;-62
2022/10/04 01:53:11;;;;;;;3.83;3.30;;;;;20.30;101159.00;;;;2051310;28;20220;-62
2022/10/04 01:54:15;;;;;;;3.65;3.30;;;;;20.30;101172.00;;;;2050380;28;20207;-62
2022/10/04 01:55:20;;;;;;;4.22;3.80;;;;;20.30;101182.00;;;;2050547;28;20231;-62
2022/10/04 01:56:25;;;;;;;3.80;3.40;;;;;20.30;101181.00;;;;2050249;28;20224;-62
2022/10/04 01:57:29;;;;;;;3.83;3.30;;;;;20.30;101165.00;;;;2053364;28;20267;-62
2022/10/04 01:58:32;;;;;;;3.63;3.33;;;;;20.30;101171.00;;;;2049386;28;21142;-62
2022/10/04 01:59:45;;;;;;;3.72;2.92;;;;;20.20;101176.00;;;;2042889;28;20208;-62
2022/10/04 02:00:53;;;;;;;3.67;2.92;;;;;20.20;101173.00;;;;2043200;29;20364;-62
2022/10/04 02:02:16;;;;;;;3.88;3.08;;;;;20.30;101173.00;;;;2044550;28;20323;-62
2022/10/04 02:03:19;;;;;;;3.70;3.40;;;;;20.30;101171.00;;;;2050254;28;20223;-62
2022/10/04 02:04:22;;;;;;;3.20;2.90;;;;;20.30;101170.00;;;;2050049;28;20207;-62
2022/10/04 02:05:32;;;;;;;5.18;3.90;;;;;20.20;101170.00;;;;2042584;29;20725;-62
2022/10/04 02:06:37;;;;;;;3.50;3.20;;;;;20.20;101166.00;;;;2038097;28;20280;-62
2022/10/04 02:07:38;;;;;;;2.90;2.70;;;;;20.20;101161.00;;;;2043584;28;20216;-62
2022/10/04 02:08:43;;;;;;;3.90;2.70;;;;;20.30;101156.00;;;;2042220;29;20580;-62
2022/10/04 02:09:45;;;;;;;3.55;2.85;;;;;20.30;101168.00;;;;2037414;29;20228;-62
2022/10/04 02:10:45;;;;;;;4.57;3.30;;;;;20.30;101163.00;;;;2045773;29;20685;-62
2022/10/04 02:11:46;;;;;;;3.63;3.10;;;;;20.20;101168.00;;;;2046558;29;20271;-62
2022/10/04 02:12:48;;;;;;;3.75;3.10;;;;;20.30;101170.00;;;;2037168;29;20284;-61
2022/10/04 02:13:50;;;;;;;4.55;2.80;;;;;20.20;101162.00;;;;2038875;29;20732;-62
2022/10/04 02:14:54;;;;;;;3.30;3.00;;;;;20.20;101157.00;;;;2038523;29;20218;-64
2022/10/04 02:15:55;;;;;;;4.57;3.13;;;;;20.30;101148.00;;;;2036216;28;20223;-62
2022/10/04 02:16:55;;;;;;;3.73;3.17;;;;;20.20;101141.00;;;;2046553;29;20215;-62
2022/10/04 02:17:56;;;;;;;3.37;3.07;;;;;20.20;101157.00;;;;2037866;29;20255;-62
2022/10/04 02:18:56;;;;;;;3.07;2.70;;;;;20.20;101153.00;;;;2034859;29;20283;-62
2022/10/04 02:19:56;;;;;;;5.03;2.90;;;;;20.20;101150.00;;;;2035183;29;20999;-62
2022/10/04 02:20:57;;;;;;;3.60;2.90;;;;;20.20;101138.00;;;;2044660;29;20718;-62
2022/10/04 02:21:57;;;;;;;3.23;2.93;;;;;20.20;101129.00;;;;2037139;29;20217;-62
2022/10/04 02:22:58;;;;;;;4.00;3.47;;;;;20.20;101145.00;;;;2026459;29;20709;-62
2022/10/04 02:23:58;;;;;;;3.10;2.80;;;;;20.20;101127.00;;;;2042256;29;20295;-62
2022/10/04 02:24:58;;;;;;;3.23;2.93;;;;;20.20;101150.00;;;;2042202;29;20216;-62
2022/10/04 02:26:03;;;;;;;4.13;2.60;;;;;20.30;101134.00;;;;2025422;29;20225;-62
2022/10/04 02:27:05;;;;;;;3.53;2.90;;;;;20.20;101138.00;;;;2035618;29;20926;-62
2022/10/04 02:28:09;;;;;;;2.85;2.63;;;;;20.20;101108.00;;;;2035394;28;20271;-62
2022/10/04 02:29:09;;;;;;;3.97;3.10;;;;;20.20;101123.00;;;;2043171;28;20722;-62
2022/10/04 02:30:11;;;;;;;3.87;3.30;;;;;20.20;101129.00;;;;2050202;28;20224;-62
2022/10/04 02:33:51;;;;;;;9.20;3.05;;;;;20.20;101128.00;;;;2053877;28;20298;-62
2022/10/04 02:34:53;;;;;;;3.22;2.70;;;;;20.20;101111.00;;;;2050374;28;20219;-62
2022/10/04 02:35:54;;;;;;;3.20;2.90;;;;;20.20;101130.00;;;;2046219;29;20239;-62
2022/10/04 02:36:54;;;;;;;3.93;2.97;;;;;20.20;101123.00;;;;2046848;28;20723;-62
2022/10/04 02:38:21;;;;;;;5.33;3.40;;;;;20.20;101126.00;;;;2050999;28;20720;-63
2022/10/04 02:39:24;;;;;;;3.47;2.80;;;;;20.20;101103.00;;;;2044848;28;20223;-62
2022/10/04 02:40:29;;;;;;;3.55;2.60;;;;;20.20;101123.00;;;;2044914;29;20224;-63
2022/10/04 02:41:34;;;;;;;3.45;3.15;;;;;20.20;101096.00;;;;2046200;29;20243;-63
2022/10/04 02:42:40;;;;;;;4.57;3.33;;;;;20.20;101099.00;;;;2042648;29;20988;-62
2022/10/04 02:43:49;;;;;;;2.80;2.60;;;;;20.20;101089.00;;;;2050570;28;20303;-62
2022/10/04 02:44:54;;;;;;;3.53;2.95;;;;;20.20;101131.00;;;;2043052;29;20677;-62
2022/10/04 02:45:57;;;;;;;5.20;3.20;;;;;20.20;101127.00;;;;2040353;28;20216;-62
2022/10/04 02:47:07;;;;;;;3.10;2.80;;;;;20.20;101127.00;;;;2034180;29;20223;-62
2022/10/04 02:48:31;;;;;;;3.85;3.20;;;;;20.20;101126.00;;;;2043896;29;20221;-62
2022/10/04 02:49:36;;;;;;;3.40;3.10;;;;;20.20;101126.00;;;;2042579;28;20223;-62
2022/10/04 02:50:44;;;;;;;3.83;2.85;;;;;20.20;101113.00;;;;2027891;29;20225;-62
2022/10/04 02:51:48;;;;;;;3.53;3.22;;;;;20.20;101124.00;;;;2043066;29;20688;-62
2022/10/04 02:52:55;;;;;;;3.35;3.05;;;;;20.20;101116.00;;;;2035455;29;20886;-62
2022/10/04 02:54:09;;;;;;;3.05;2.75;;;;;20.20;101127.00;;;;2043110;29;20308;-65
2022/10/04 02:55:18;;;;;;;5.28;3.42;;;;;20.20;101125.00;;;;2046481;28;20308;-62
2022/10/04 02:56:18;;;;;;;3.70;3.20;;;;;20.20;101122.00;;;;2053831;28;20731;-62
2022/10/04 02:57:20;;;;;;;4.07;3.63;;;;;20.20;101100.00;;;;2050695;28;20216;-62
2022/10/04 02:58:21;;;;;;;3.30;3.00;;;;;20.20;101094.00;;;;2050914;28;20222;-62
2022/10/04 02:59:21;;;;;;;4.05;3.30;;;;;20.20;101113.00;;;;2050745;28;20221;-62
2022/10/04 03:00:26;;;;;;;3.27;2.97;;;;;20.20;101118.00;;;;2026446;29;20601;-62
2022/10/04 03:01:34;;;;;;;3.92;3.08;;;;;20.20;101116.00;;;;2031240;28;20221;-62
2022/10/04 03:02:35;;;;;;;3.20;2.90;;;;;20.20;101116.00;;;;2042224;29;20216;-62
2022/10/04 03:03:38;;;;;;;3.83;3.03;;;;;20.20;101123.00;;;;2035062;29;20224;-62
2022/10/04 03:04:38;;;;;;;2.80;2.60;;;;;20.20;101123.00;;;;2034452;29;20212;-62
2022/10/04 03:05:39;;;;;;;3.77;3.43;;;;;20.20;101116.00;;;;2034244;29;20686;-61
2022/10/04 03:06:39;;;;;;;3.17;2.93;;;;;20.20;101119.00;;;;2053943;28;20215;-62
2022/10/04 03:07:40;;;;;;;4.50;3.53;;;;;20.20;101117.00;;;;2050911;28;20700;-62
2022/10/04 03:08:42;;;;;;;3.80;3.23;;;;;20.20;101115.00;;;;2042958;29;20734;-62
2022/10/04 03:09:43;;;;;;;3.40;3.00;;;;;20.10;101120.00;;;;2051944;28;20299;-62
2022/10/04 03:10:43;;;;;;;4.13;3.50;;;;;20.10;101114.00;;;;2051051;28;20351;-62
2022/10/04 03:11:45;;;;;;;4.50;3.20;;;;;20.10;101123.00;;;;2051735;28;20220;-62
2022/10/04 03:12:49;;;;;;;3.53;3.22;;;;;20.20;101116.00;;;;2050644;28;20239;-62
2022/10/04 03:13:51;;;;;;;4.35;2.70;;;;;20.10;101111.00;;;;2043372;28;20221;-61
2022/10/04 03:14:52;;;;;;;3.72;2.92;;;;;20.10;101086.00;;;;2045424;29;20678;-62
2022/10/04 03:15:52;;;;;;;4.00;3.40;;;;;20.10;101110.00;;;;2050112;28;20214;-62
2022/10/04 03:16:54;;;;;;;3.47;3.17;;;;;20.20;101102.00;;;;2049698;28;20236;-62
2022/10/04 03:17:54;;;;;;;3.30;3.00;;;;;20.10;101106.00;;;;2034859;29;20220;-62
2022/10/04 03:18:55;;;;;;;3.50;2.80;;;;;20.20;101106.00;;;;2043022;29;20216;-61
2022/10/04 03:19:56;;;;;;;3.00;2.70;;;;;20.10;101105.00;;;;2042792;29;20371;-62
2022/10/04 03:20:57;;;;;;;3.65;3.30;;;;;20.10;101100.00;;;;2043000;28;20243;-62
2022/10/04 03:22:03;;;;;;;4.93;3.10;;;;;20.20;101101.00;;;;2050761;28;20211;-62
2022/10/04 03:23:03;;;;;;;3.50;3.20;;;;;20.20;101094.00;;;;2037234;29;20528;-62
2022/10/04 03:24:05;;;;;;;3.80;3.13;;;;;20.10;101081.00;;;;2038731;29;20784;-62
2022/10/04 03:25:05;;;;;;;3.83;3.40;;;;;20.10;101095.00;;;;2046247;29;20215;-62
2022/10/04 03:26:31;;;;;;;3.30;3.00;;;;;20.10;101085.00;;;;2030244;29;20213;-62
2022/10/04 03:27:32;;;;;;;4.63;3.08;;;;;20.10;101101.00;;;;2030831;29;20212;-62
2022/10/04 03:28:33;;;;;;;3.40;3.10;;;;;20.10;101094.00;;;;2034685;29;20217;-62
2022/10/04 03:29:33;;;;;;;3.90;2.90;;;;;20.10;101104.00;;;;2045392;28;20675;-62
2022/10/04 03:30:34;;;;;;;3.20;2.90;;;;;20.10;101086.00;;;;2046290;29;20220;-62
2022/10/04 03:31:39;;;;;;;3.13;2.92;;;;;20.10;101096.00;;;;2050654;28;21006;-62
2022/10/04 03:32:39;;;;;;;3.50;3.20;;;;;20.10;101093.00;;;;2050365;28;20207;-62
2022/10/04 03:33:40;;;;;;;3.77;3.30;;;;;20.10;101102.00;;;;2035252;29;20217;-62
2022/10/04 03:34:42;;;;;;;3.50;3.20;;;;;20.10;101099.00;;;;2044297;29;20224;-62
2022/10/04 03:35:43;;;;;;;3.10;2.80;;;;;20.10;101101.00;;;;2044345;29;20319;-62
2022/10/04 03:36:44;;;;;;;3.70;3.00;;;;;20.10;101092.00;;;;2036919;28;20231;-62
2022/10/04 03:37:44;;;;;;;3.60;3.30;;;;;20.10;101077.00;;;;2051431;28;20443;-62
2022/10/04 03:38:45;;;;;;;4.70;3.60;;;;;20.10;101099.00;;;;2051442;28;20591;-61
2022/10/04 03:39:48;;;;;;;3.55;3.25;;;;;20.10;101102.00;;;;2051458;28;20719;-62
2022/10/04 03:40:52;;;;;;;3.30;3.00;;;;;20.10;101095.00;;;;2051427;28;20224;-62
2022/10/04 03:41:52;;;;;;;3.90;3.50;;;;;20.10;101101.00;;;;2046091;29;22910;-62
2022/10/04 03:42:52;;;;;;;3.63;3.20;;;;;20.10;101070.00;;;;2037752;29;20287;-62
2022/10/04 03:43:53;;;;;;;3.70;3.40;;;;;20.10;101093.00;;;;2043863;29;20256;-62
2022/10/04 03:44:55;;;;;;;3.70;3.40;;;;;20.10;101089.00;;;;2051170;28;20215;-62
2022/10/04 03:45:56;;;;;;;3.60;3.30;;;;;20.10;101091.00;;;;2042770;29;20212;-62
2022/10/04 03:46:57;;;;;;;3.60;3.30;;;;;20.10;101096.00;;;;2050835;28;20716;-62
2022/10/04 03:48:03;;;;;;;3.63;3.30;;;;;20.10;101081.00;;;;2051684;28;20224;-61
2022/10/04 03:49:04;;;;;;;3.40;3.10;;;;;20.10;101099.00;;;;2038730;29;20224;-63
2022/10/04 03:50:28;;;;;;;3.80;3.50;;;;;20.10;101084.00;;;;2035396;29;20233;-62
2022/10/04 03:51:28;;;;;;;4.18;3.60;;;;;20.10;101096.00;;;;2045585;28;20337;-62
2022/10/04 03:52:30;;;;;;;4.47;3.47;;;;;20.10;101068.00;;;;2051898;28;20218;-62
2022/10/04 03:53:31;;;;;;;4.47;4.07;;;;;20.10;101091.00;;;;2051227;28;20223;-62
2022/10/04 03:54:32;;;;;;;4.43;3.50;;;;;20.10;101096.00;;;;2051378;28;20570;-62
2022/10/04 03:55:34;;;;;;;4.00;3.70;;;;;20.10;101081.00;;;;2051405;28;20212;-62
2022/10/04 03:56:34;;;;;;;4.82;4.30;;;;;20.10;101079.00;;;;2051086;28;20485;-62
2022/10/04 03:57:35;;;;;;;3.57;3.27;;;;;20.10;101085.00;;;;2044124;29;20216;-62
2022/10/04 03:58:35;;;;;;;3.73;3.43;;;;;20.00;101077.00;;;;2039439;29;20216;-64
2022/10/04 03:59:36;;;;;;;4.40;4.07;;;;;20.00;101073.00;;;;2038843;29;20217;-64
2022/10/04 04:00:39;;;;;;;4.73;4.30;;;;;20.10;101069.00;;;;2047249;28;20248;-63
2022/10/04 04:01:41;;;;;;;4.40;4.00;;;;;20.10;101068.00;;;;2044166;29;20369;-62
2022/10/04 04:02:45;;;;;;;4.25;3.95;;;;;20.10;101096.00;;;;2037668;29;20244;-62
2022/10/04 04:03:55;;;;;;;4.63;4.25;;;;;20.10;101072.00;;;;2043997;29;20581;-62
2022/10/04 04:05:03;;;;;;;4.20;3.80;;;;;20.10;101084.00;;;;2052018;28;20218;-62
2022/10/04 04:06:05;;;;;;;3.70;3.40;;;;;20.10;101077.00;;;;2051617;28;20666;-62
2022/10/04 04:07:09;;;;;;;4.20;3.90;;;;;20.10;101083.00;;;;2047646;29;20864;-62
2022/10/04 04:08:14;;;;;;;4.90;4.20;;;;;20.10;101090.00;;;;2047735;28;20212;-61
2022/10/04 04:09:19;;;;;;;4.15;3.80;;;;;20.10;101077.00;;;;2050490;28;20214;-62
2022/10/04 04:10:25;;;;;;;4.03;3.72;;;;;20.10;101079.00;;;;2050599;28;20227;-62
2022/10/04 04:11:25;;;;;;;4.00;3.70;;;;;20.10;101057.00;;;;2043498;29;20217;-62
2022/10/04 04:12:36;;;;;;;4.33;3.67;;;;;20.00;101080.00;;;;2043700;29;20299;-62
2022/10/04 04:13:50;;;;;;;3.85;3.55;;;;;20.00;101073.00;;;;2041175;29;20213;-62
2022/10/04 04:14:51;;;;;;;3.95;3.58;;;;;20.00;101075.00;;;;2052282;28;20358;-62
2022/10/04 04:15:53;;;;;;;4.30;3.90;;;;;20.00;101074.00;;;;2043260;28;20224;-62
2022/10/04 04:16:54;;;;;;;3.58;3.35;;;;;20.00;101072.00;;;;2051255;28;20228;-62
2022/10/04 04:17:54;;;;;;;4.07;3.77;;;;;20.10;101040.00;;;;2043548;29;20328;-62
2022/10/04 04:18:58;;;;;;;4.43;4.03;;;;;20.00;101064.00;;;;2051417;28;20239;-62
2022/10/04 04:20:00;;;;;;;4.50;4.10;;;;;20.00;101063.00;;;;2051236;28;20219;-62
2022/10/04 04:21:01;;;;;;;3.95;3.65;;;;;20.00;101067.00;;;;2050602;28;20698;-61
2022/10/04 04:22:01;;;;;;;3.78;3.47;;;;;20.00;101072.00;;;;2050075;28;20215;-62
2022/10/04 04:23:14;;;;;;;3.87;3.57;;;;;20.00;101061.00;;;;2046907;29;20220;-61
2022/10/04 04:24:26;;;;;;;4.68;3.80;;;;;20.00;101075.00;;;;2038930;28;20228;-62
2022/10/04 04:25:27;;;;;;;4.10;3.70;;;;;20.00;101070.00;;;;2036199;29;20268;-62
2022/10/04 04:26:41;;;;;;;3.78;3.33;;;;;20.00;101069.00;;;;2043573;29;20219;-61
2022/10/04 04:27:41;;;;;;;5.50;3.60;;;;;20.00;101043.00;;;;2046002;29;20220;-62
2022/10/04 04:28:50;;;;;;;4.30;3.90;;;;;20.00;101066.00;;;;2039401;29;20266;-62
2022/10/04 04:29:53;;;;;;;3.88;3.58;;;;;20.00;101073.00;;;;2048113;28;21037;-62
2022/10/04 04:30:59;;;;;;;3.80;3.50;;;;;20.00;101073.00;;;;2052600;28;20330;-62
2022/10/04 04:32:01;;;;;;;4.07;3.78;;;;;20.00;101072.00;;;;2050552;28;20258;-62
2022/10/04 04:33:05;;;;;;;3.67;3.45;;;;;20.00;101040.00;;;;2050617;28;20223;-62
2022/10/04 04:34:15;;;;;;;4.55;4.13;;;;;20.00;101034.00;;;;2038666;29;20228;-62
2022/10/04 04:35:31;;;;;;;4.55;4.25;;;;;20.00;101066.00;;;;2033005;29;20304;-62
2022/10/04 04:36:39;;;;;;;3.97;3.67;;;;;20.00;101072.00;;;;2047483;28;20222;-62
2022/10/04 04:37:39;;;;;;;3.95;3.65;;;;;20.00;101060.00;;;;2051836;28;20726;-62
2022/10/04 04:39:33;;;;;;;4.70;4.27;;;;;20.00;101065.00;;;;2051521;28;20342;-62
2022/10/04 04:40:19;;;;;;;5.40;4.90;;;;;20.00;101063.00;;;;2051144;28;20247;-62
2022/10/04 04:41:21;;;;;;;4.13;3.83;;;;;20.00;101060.00;;;;2050498;28;20208;-61
2022/10/04 04:42:30;;;;;;;5.20;4.63;;;;;20.00;101065.00;;;;2050726;28;20404;-62
2022/10/04 04:43:31;;;;;;;4.50;4.10;;;;;20.00;101060.00;;;;2046291;29;20268;-62
2022/10/04 04:44:32;;;;;;;4.40;4.00;;;;;20.00;101027.00;;;;2043003;29;20272;-62
2022/10/04 04:45:32;;;;;;;4.70;4.30;;;;;20.00;101042.00;;;;2042193;28;20229;-62
2022/10/04 04:46:33;;;;;;;3.77;3.47;;;;;20.00;101063.00;;;;2050963;28;20224;-62
2022/10/04 04:47:39;;;;;;;4.43;4.13;;;;;20.00;101049.00;;;;2051758;28;20229;-62
2022/10/04 04:48:43;;;;;;;4.80;4.40;;;;;20.00;101042.00;;;;2043683;29;21184;-62
2022/10/04 04:49:43;;;;;;;4.43;3.80;;;;;20.00;101053.00;;;;2042753;28;20296;-63
2022/10/04 04:50:49;;;;;;;4.43;4.03;;;;;20.00;101038.00;;;;2035206;29;20213;-63
2022/10/04 04:51:50;;;;;;;4.35;3.95;;;;;20.00;101046.00;;;;2035643;29;20649;-62
2022/10/04 04:52:53;;;;;;;4.20;3.90;;;;;20.00;101035.00;;;;2043143;28;20225;-63
2022/10/04 04:53:54;;;;;;;4.38;3.97;;;;;20.00;101044.00;;;;2051548;28;20462;-63
2022/10/04 04:54:54;;;;;;;3.97;3.67;;;;;20.00;101045.00;;;;2051377;28;20227;-62
2022/10/04 04:55:59;;;;;;;4.13;3.73;;;;;20.00;101038.00;;;;2050182;28;20224;-62
2022/10/04 04:56:59;;;;;;;4.72;4.32;;;;;20.00;101022.00;;;;2050919;28;20243;-62
2022/10/04 04:58:00;;;;;;;5.00;4.10;;;;;20.00;101029.00;;;;2050906;28;20246;-62
2022/10/04 04:59:01;;;;;;;4.30;4.00;;;;;20.00;101004.00;;;;2050945;28;20215;-62
2022/10/04 05:00:02;;;;;;;4.68;4.28;;;;;20.00;101031.00;;;;2050739;28;20222;-62
2022/10/04 05:01:21;;;;;;;4.43;4.03;;;;;20.00;101024.00;;;;2043744;29;20221;-62
2022/10/04 05:02:34;;;;;;;3.90;3.55;;;;;20.00;101033.00;;;;2037342;29;20224;-62
2022/10/04 05:03:34;;;;;;;3.70;3.50;;;;;20.00;101040.00;;;;2046201;28;21670;-62
2022/10/04 05:04:35;;;;;;;4.50;3.70;;;;;20.00;101040.00;;;;2051009;28;20220;-62
2022/10/04 05:05:36;;;;;;;5.03;3.60;;;;;19.90;101039.00;;;;2051496;28;20224;-62
2022/10/04 05:06:37;;;;;;;3.80;3.50;;;;;20.00;101035.00;;;;2052400;28;20216;-62
2022/10/04 05:07:37;;;;;;;3.80;3.50;;;;;19.90;101019.00;;;;2052368;28;20220;-62
2022/10/04 05:08:38;;;;;;;3.87;3.53;;;;;19.90;101037.00;;;;2051114;28;20416;-62
2022/10/04 05:09:38;;;;;;;4.13;3.73;;;;;20.00;101031.00;;;;2050552;28;20227;-62
2022/10/04 05:10:41;;;;;;;3.93;3.53;;;;;20.00;101035.00;;;;2050838;28;20270;-62
2022/10/04 05:11:42;;;;;;;4.13;3.58;;;;;19.90;101035.00;;;;2050794;28;20224;-62
2022/10/04 05:12:42;;;;;;;4.83;3.70;;;;;19.90;101016.00;;;;2049213;28;20550;-62
2022/10/04 05:13:44;;;;;;;3.67;3.37;;;;;20.00;101021.00;;;;2051664;28;20720;-62
2022/10/04 05:14:51;;;;;;;4.30;4.00;;;;;19.90;101027.00;;;;2043629;28;20311;-62
2022/10/04 05:15:52;;;;;;;3.60;3.30;;;;;19.90;101029.00;;;;2050685;28;20215;-62
2022/10/04 05:16:53;;;;;;;3.97;3.45;;;;;20.00;101024.00;;;;2052139;28;20257;-62
2022/10/04 05:17:53;;;;;;;3.60;3.30;;;;;19.90;100985.00;;;;2051343;28;20290;-62
2022/10/04 05:18:59;;;;;;;4.27;3.93;;;;;19.90;101023.00;;;;2043206;29;20907;-61
2022/10/04 05:19:59;;;;;;;4.10;3.70;;;;;19.90;101028.00;;;;2043052;28;20228;-62
2022/10/04 05:21:06;;;;;;;4.13;3.73;;;;;19.90;101022.00;;;;2042745;29;20275;-62
2022/10/04 05:22:10;;;;;;;3.80;3.45;;;;;19.90;101024.00;;;;2040263;28;20903;-63
2022/10/04 05:23:11;;;;;;;3.63;3.33;;;;;20.00;101039.00;;;;2047485;28;20216;-64